Time;durP1;ratioP1;P1;durP2;ratioP2;P2;SDS_P1;SDS_P2;PMS_P1;PMS_P2;Temp;Humidity;BMP_temperature;BMP_pressure;BME280_temperature;BME280_humidity;BME280_pressure;Samples;Min_cycle;Max_cycle;Signal;HPM_P1;HPM_P2
2021/10/01 00:01:47;;;;;;;19.05;10.88;;;;;;;8.18;60.37;101702.06;5030699;28;20034;-58
2021/10/01 00:04:12;;;;;;;17.85;10.38;;;;;;;8.40;60.42;101739.41;5031266;28;20068;-52
2021/10/01 00:06:38;;;;;;;16.45;10.25;;;;;;;8.21;60.52;101709.94;5030086;28;20473;-56
2021/10/01 00:09:04;;;;;;;15.75;10.48;;;;;;;8.32;60.36;101734.41;5030866;28;20576;-54
2021/10/01 00:11:31;;;;;;;16.35;10.63;;;;;;;8.36;60.87;101737.78;5034245;28;20184;-58
2021/10/01 00:13:57;;;;;;;17.05;10.23;;;;;;;8.33;61.02;101735.25;5034798;28;20120;-56
2021/10/01 00:16:22;;;;;;;16.70;10.50;;;;;;;8.35;60.31;101740.53;5033780;28;20141;-54
2021/10/01 00:18:48;;;;;;;15.30;10.75;;;;;;;8.32;60.81;101736.19;5034461;28;20073;-58
2021/10/01 00:21:14;;;;;;;16.90;10.60;;;;;;;8.31;60.80;101737.13;5033676;28;20033;-56
2021/10/01 00:23:39;;;;;;;16.00;11.38;;;;;;;8.30;60.76;101736.25;5034287;28;20032;-59
2021/10/01 00:26:05;;;;;;;18.05;11.40;;;;;;;8.28;60.58;101729.25;5052281;28;20033;-56
2021/10/01 00:28:31;;;;;;;15.73;10.50;;;;;;;8.31;60.85;101745.13;5053193;28;20047;-57
2021/10/01 00:30:56;;;;;;;20.77;11.82;;;;;;;8.30;60.63;101748.72;5053379;28;20029;-57
2021/10/01 00:33:22;;;;;;;16.15;10.07;;;;;;;8.24;60.71;101732.97;5053919;28;20040;-55
2021/10/01 00:35:48;;;;;;;16.70;10.70;;;;;;;8.27;60.82;101743.53;5040281;28;20037;-56
2021/10/01 00:38:14;;;;;;;18.10;11.18;;;;;;;8.21;60.48;101733.09;5031994;28;20429;-54
2021/10/01 00:40:40;;;;;;;17.13;10.65;;;;;;;8.25;60.55;101745.38;5033686;28;20033;-56
2021/10/01 00:43:05;;;;;;;17.60;10.95;;;;;;;8.24;60.76;101743.66;5033619;28;20047;-56
2021/10/01 00:45:31;;;;;;;18.15;11.10;;;;;;;8.22;60.82;101737.50;5032975;28;20037;-56
2021/10/01 00:47:56;;;;;;;18.50;10.75;;;;;;;8.21;61.00;101733.94;5033607;28;20029;-55
2021/10/01 00:50:22;;;;;;;16.38;11.05;;;;;;;8.21;61.15;101747.28;5033581;28;20030;-53
2021/10/01 00:52:49;;;;;;;15.80;10.55;;;;;;;8.21;60.95;101739.28;5033076;28;20075;-56
2021/10/01 00:55:16;;;;;;;22.05;10.77;;;;;;;8.16;60.82;101743.94;5033210;28;20040;-57
2021/10/01 00:57:41;;;;;;;19.75;10.77;;;;;;;8.12;60.88;101735.19;5036992;28;20037;-57
2021/10/01 01:00:15;;;;;;;14.82;11.00;;;;;;;8.13;61.58;101741.41;5032996;28;20021;-53
2021/10/01 01:02:41;;;;;;;17.05;10.70;;;;;;;8.12;61.10;101735.19;5032787;28;20033;-57
2021/10/01 01:05:07;;;;;;;20.63;10.85;;;;;;;8.09;60.99;101737.13;5033148;28;20523;-55
2021/10/01 01:07:57;;;;;;;25.20;11.30;;;;;;;8.23;61.13;101748.09;5046344;28;20037;-57
2021/10/01 01:10:25;;;;;;;16.50;11.00;;;;;;;8.18;61.09;101744.75;5047250;28;20063;-58
2021/10/01 01:13:02;;;;;;;16.95;11.02;;;;;;;8.18;60.88;101739.41;5032871;28;20052;-57
2021/10/01 01:15:31;;;;;;;18.33;11.32;;;;;;;8.13;60.89;101741.41;5033053;28;20056;-58
2021/10/01 01:18:13;;;;;;;16.23;10.23;;;;;;;8.19;61.29;101751.81;5037628;28;20123;-56
2021/10/01 01:20:45;;;;;;;18.08;11.02;;;;;;;8.10;60.88;101739.72;5031856;28;20048;-56
2021/10/01 01:23:22;;;;;;;18.80;11.02;;;;;;;8.17;61.03;101749.22;5032484;28;20041;-56
2021/10/01 01:26:25;;;;;;;17.45;11.10;;;;;;;8.17;60.80;101743.88;5033194;28;20025;-58
2021/10/01 01:29:12;;;;;;;17.33;10.48;;;;;;;8.18;60.80;101745.59;5032803;28;20464;-55
2021/10/01 01:32:02;;;;;;;16.15;10.38;;;;;;;8.13;60.82;101742.25;5032447;28;20029;-56
2021/10/01 01:34:30;;;;;;;15.13;10.30;;;;;;;8.04;61.30;101738.16;5032671;28;20489;-55
2021/10/01 01:37:08;;;;;;;14.07;10.18;;;;;;;8.03;60.92;101740.91;5036645;28;20036;-56
2021/10/01 01:39:36;;;;;;;14.85;10.77;;;;;;;7.98;61.07;101734.88;5032649;28;20108;-60
2021/10/01 01:42:02;;;;;;;20.13;10.32;;;;;;;7.94;61.32;101730.56;5031870;28;20029;-55
2021/10/01 01:44:29;;;;;;;19.98;10.95;;;;;;;7.95;61.35;101741.19;5032577;28;20172;-55
2021/10/01 01:46:59;;;;;;;16.80;10.40;;;;;;;7.99;61.42;101750.81;5047399;28;20024;-56
2021/10/01 01:49:25;;;;;;;16.98;10.60;;;;;;;7.90;61.57;101737.84;5052682;28;20029;-57
2021/10/01 01:51:51;;;;;;;14.90;10.65;;;;;;;7.95;61.22;101735.84;5050352;28;20451;-56
2021/10/01 01:54:18;;;;;;;13.23;9.88;;;;;;;7.96;61.51;101745.59;5052221;28;20033;-57
2021/10/01 01:56:45;;;;;;;18.75;10.82;;;;;;;7.81;61.28;101712.38;5045198;28;20079;-54
2021/10/01 01:59:12;;;;;;;15.82;10.25;;;;;;;7.99;60.91;101739.28;5031739;28;20033;-54
2021/10/01 02:01:40;;;;;;;16.30;10.95;;;;;;;7.97;61.07;101736.66;5031437;28;20029;-56
2021/10/01 02:04:06;;;;;;;17.67;10.65;;;;;;;7.94;61.13;101735.91;5031733;28;20069;-56
2021/10/01 02:06:33;;;;;;;15.15;10.57;;;;;;;7.75;61.35;101700.16;5034623;28;20040;-57
2021/10/01 02:09:00;;;;;;;16.75;10.82;;;;;;;7.87;61.29;101721.97;5052061;28;20049;-57
2021/10/01 02:11:26;;;;;;;17.30;10.93;;;;;;;7.90;61.75;101736.03;5051923;28;20111;-57
2021/10/01 02:13:54;;;;;;;16.35;10.95;;;;;;;7.94;61.58;101735.91;5050090;28;20155;-57
2021/10/01 02:16:21;;;;;;;17.58;11.77;;;;;;;7.92;61.49;101733.31;5050336;28;20037;-57
2021/10/01 02:18:48;;;;;;;15.02;10.52;;;;;;;7.89;61.43;101738.78;5048389;28;20040;-52
2021/10/01 02:21:17;;;;;;;15.48;10.98;;;;;;;7.89;61.57;101734.28;5032485;28;20105;-53
2021/10/01 02:23:42;;;;;;;16.45;11.32;;;;;;;7.87;61.50;101732.63;5031399;28;20068;-56
2021/10/01 02:29:04;;;;;;;19.35;10.38;;;;;;;7.94;61.19;101741.22;5035680;28;20041;-55
2021/10/01 02:31:37;;;;;;;17.70;10.40;;;;;;;7.90;61.22;101743.16;5030949;28;20112;-55
2021/10/01 02:34:05;;;;;;;15.77;10.50;;;;;;;7.79;61.48;101730.25;5031412;28;20033;-56
2021/10/01 02:36:31;;;;;;;15.27;10.70;;;;;;;7.83;61.51;101734.53;5030639;28;20037;-58
2021/10/01 02:38:57;;;;;;;17.83;10.00;;;;;;;7.76;61.35;101743.69;5034991;28;20030;-53
2021/10/01 02:41:22;;;;;;;15.40;10.80;;;;;;;7.80;61.52;101741.75;5030876;28;20029;-56
2021/10/01 02:43:48;;;;;;;15.15;10.25;;;;;;;7.73;61.68;101738.50;5031719;28;20500;-57
2021/10/01 02:46:13;;;;;;;14.27;10.73;;;;;;;7.73;61.72;101739.34;5031318;28;20115;-54
2021/10/01 02:48:39;;;;;;;19.05;10.93;;;;;;;7.73;61.78;101749.16;5032880;28;20033;-58
2021/10/01 02:51:19;;;;;;;17.70;10.95;;;;;;;7.74;61.50;101750.91;5032571;28;20033;-57
2021/10/01 02:54:01;;;;;;;15.27;10.48;;;;;;;7.75;61.72;101741.97;5031235;28;20470;-56
2021/10/01 02:56:35;;;;;;;16.85;11.38;;;;;;;7.72;61.54;101742.09;5030993;28;20383;-54
2021/10/01 02:59:03;;;;;;;16.60;11.35;;;;;;;7.66;61.78;101742.28;5031134;28;20100;-58
2021/10/01 03:01:31;;;;;;;17.30;10.80;;;;;;;7.44;62.13;101712.00;5039287;28;20063;-59
2021/10/01 03:04:01;;;;;;;17.52;11.50;;;;;;;7.67;61.86;101744.91;5031485;28;20124;-59
2021/10/01 03:06:30;;;;;;;18.73;10.85;;;;;;;7.67;62.19;101754.69;5030926;28;20382;-58
2021/10/01 03:08:56;;;;;;;17.90;11.73;;;;;;;7.43;61.73;101712.03;5030954;28;20053;-59
2021/10/01 03:11:30;;;;;;;18.23;11.25;;;;;;;7.74;61.68;101756.22;5035188;28;20045;-57
2021/10/01 03:13:56;;;;;;;16.70;11.00;;;;;;;7.68;62.10;101746.66;5031241;28;20029;-58
2021/10/01 03:16:23;;;;;;;20.88;11.75;;;;;;;7.67;62.02;101752.91;5030611;28;20403;-53
2021/10/01 03:18:51;;;;;;;20.23;12.05;;;;;;;7.69;61.73;101753.72;5030384;28;20497;-55
2021/10/01 03:21:19;;;;;;;16.63;11.98;;;;;;;7.69;61.81;101750.16;5034507;28;20470;-58
2021/10/01 03:23:46;;;;;;;18.27;11.82;;;;;;;7.65;62.16;101740.56;5030859;28;20040;-58
2021/10/01 03:26:12;;;;;;;19.23;11.65;;;;;;;7.60;62.01;101732.75;5030418;28;20473;-59
2021/10/01 03:28:42;;;;;;;16.48;11.80;;;;;;;7.68;61.75;101745.75;5029989;28;20029;-57
2021/10/01 03:31:08;;;;;;;18.65;11.40;;;;;;;7.67;61.85;101749.38;5030752;28;20114;-57
2021/10/01 03:33:33;;;;;;;16.88;11.32;;;;;;;7.46;61.58;101711.91;5030823;28;20029;-56
2021/10/01 03:36:00;;;;;;;20.77;11.77;;;;;;;7.67;61.86;101749.38;5031028;28;20040;-57
2021/10/01 03:38:26;;;;;;;17.10;11.98;;;;;;;7.66;61.65;101750.28;5030092;28;20033;-56
2021/10/01 03:40:52;;;;;;;23.27;11.57;;;;;;;7.65;61.69;101753.88;5030993;28;20033;-58
2021/10/01 03:43:18;;;;;;;20.13;11.98;;;;;;;7.60;61.71;101749.59;5037299;28;20026;-57
2021/10/01 03:45:44;;;;;;;17.42;12.20;;;;;;;7.60;61.83;101762.94;5034166;28;20025;-56
2021/10/01 03:48:10;;;;;;;16.70;11.73;;;;;;;7.57;62.04;101760.38;5042267;28;20444;-58
2021/10/01 03:50:37;;;;;;;17.70;11.88;;;;;;;7.59;62.06;101760.31;5035738;28;20037;-56
2021/10/01 03:53:03;;;;;;;19.98;12.10;;;;;;;7.61;62.17;101763.81;5038421;28;20035;-56
2021/10/01 03:55:29;;;;;;;18.92;12.88;;;;;;;7.60;61.97;101765.59;5033935;28;20400;-58
2021/10/01 03:57:55;;;;;;;18.35;12.52;;;;;;;7.61;62.09;101751.34;5032940;28;20021;-57
2021/10/01 04:00:21;;;;;;;21.23;12.15;;;;;;;7.42;61.49;101719.19;5034137;28;20382;-59
2021/10/01 04:02:47;;;;;;;18.20;12.55;;;;;;;7.63;61.64;101755.75;5033820;28;20069;-56
2021/10/01 04:05:14;;;;;;;19.25;11.80;;;;;;;7.68;61.66;101757.31;5034239;28;20068;-60
2021/10/01 04:07:40;;;;;;;17.77;12.27;;;;;;;7.66;61.72;101760.94;5033384;28;20053;-55
2021/10/01 04:10:07;;;;;;;18.30;12.05;;;;;;;7.68;62.16;101759.97;5034159;28;20095;-57
2021/10/01 04:12:33;;;;;;;19.08;11.50;;;;;;;7.67;61.90;101752.91;5034098;28;20124;-59
2021/10/01 04:14:59;;;;;;;18.08;12.52;;;;;;;7.66;61.74;101755.63;5050423;28;20100;-56
2021/10/01 04:17:24;;;;;;;18.30;12.60;;;;;;;7.68;61.94;101751.97;5054142;28;20053;-57
2021/10/01 04:19:50;;;;;;;19.17;12.48;;;;;;;7.70;61.50;101749.25;5052780;28;20036;-58
2021/10/01 04:22:16;;;;;;;18.67;13.10;;;;;;;7.68;61.45;101751.09;5035128;28;20029;-56
2021/10/01 04:24:42;;;;;;;19.85;12.98;;;;;;;7.72;61.60;101747.41;5037478;28;20029;-57
2021/10/01 04:27:07;;;;;;;19.65;12.88;;;;;;;7.73;61.37;101751.81;5033726;28;20025;-56
2021/10/01 04:29:33;;;;;;;19.98;13.18;;;;;;;7.74;61.67;101740.22;5033793;28;20051;-56
2021/10/01 04:32:01;;;;;;;26.10;13.07;;;;;;;7.73;61.55;101738.50;5033912;28;20056;-54
2021/10/01 04:34:29;;;;;;;19.92;13.30;;;;;;;7.79;61.42;101738.25;5036172;28;20040;-57
2021/10/01 04:36:54;;;;;;;24.27;13.23;;;;;;;7.83;61.32;101747.88;5052052;28;20366;-56
2021/10/01 04:39:20;;;;;;;19.08;12.85;;;;;;;7.86;61.17;101749.56;5044515;28;20041;-58
2021/10/01 04:41:45;;;;;;;19.60;12.70;;;;;;;7.86;61.21;101745.06;5033360;28;20029;-56
2021/10/01 04:44:11;;;;;;;21.85;12.85;;;;;;;7.90;61.15;101744.03;5033160;28;20637;-58
2021/10/01 04:46:37;;;;;;;21.85;12.80;;;;;;;7.60;60.89;101698.94;5037630;28;20032;-56
2021/10/01 04:49:03;;;;;;;18.77;13.00;;;;;;;7.94;61.02;101752.78;5034151;28;20148;-59
2021/10/01 04:51:29;;;;;;;23.23;13.10;;;;;;;7.94;61.05;101751.91;5033071;28;20080;-56
2021/10/01 04:53:54;;;;;;;19.38;12.73;;;;;;;7.92;61.19;101751.09;5032757;28;20112;-59
2021/10/01 04:56:20;;;;;;;19.75;13.05;;;;;;;7.92;61.19;101751.09;5035954;28;20025;-59
2021/10/01 04:58:46;;;;;;;25.65;13.40;;;;;;;7.98;61.11;101753.53;5033882;28;20501;-56
2021/10/01 05:01:11;;;;;;;21.52;13.43;;;;;;;7.99;60.83;101752.63;5033061;28;20136;-56
2021/10/01 05:03:37;;;;;;;17.73;12.27;;;;;;;7.95;60.88;101749.19;5033260;28;20041;-57
2021/10/01 05:06:02;;;;;;;23.13;12.60;;;;;;;7.95;60.51;101740.31;5035215;28;20033;-58
2021/10/01 05:08:28;;;;;;;23.05;12.82;;;;;;;8.04;60.85;101758.63;5053044;28;20160;-58
2021/10/01 05:10:54;;;;;;;18.65;12.63;;;;;;;8.00;60.25;101746.34;5052106;28;20036;-58
2021/10/01 05:13:20;;;;;;;19.75;12.98;;;;;;;8.05;60.69;101758.56;5032460;28;20029;-56
2021/10/01 05:15:46;;;;;;;22.58;14.70;;;;;;;8.08;60.38;101757.59;5033156;28;20029;-57
2021/10/01 05:18:14;;;;;;;22.85;13.88;;;;;;;8.08;60.31;101760.25;5037249;28;20450;-58
2021/10/01 05:20:39;;;;;;;20.85;13.13;;;;;;;8.10;60.07;101755.72;5032790;28;20041;-55
2021/10/01 05:23:05;;;;;;;19.95;13.90;;;;;;;8.11;60.47;101756.59;5031444;28;20052;-56
2021/10/01 05:25:31;;;;;;;19.38;13.13;;;;;;;8.12;59.86;101755.69;5032910;28;20056;-60
2021/10/01 05:27:56;;;;;;;19.92;13.15;;;;;;;8.00;60.18;101741.03;5035550;28;20132;-58
2021/10/01 05:30:22;;;;;;;20.17;13.77;;;;;;;8.12;60.30;101758.34;5034872;28;20086;-57
2021/10/01 05:32:48;;;;;;;21.05;14.35;;;;;;;8.15;60.02;101761.75;5031883;28;20417;-58
2021/10/01 05:35:14;;;;;;;24.42;14.40;;;;;;;8.16;59.95;101758.13;5043098;28;20036;-60
2021/10/01 05:37:39;;;;;;;23.27;14.82;;;;;;;8.17;59.91;101751.88;5041297;28;20029;-56
2021/10/01 05:40:06;;;;;;;24.40;13.82;;;;;;;8.22;59.64;101757.03;5044059;28;20024;-54
2021/10/01 05:42:32;;;;;;;22.80;14.50;;;;;;;8.29;59.54;101763.00;5040756;28;20103;-58
2021/10/01 05:44:57;;;;;;;23.35;14.40;;;;;;;8.30;59.21;101759.41;5043008;28;20116;-58
2021/10/01 05:47:23;;;;;;;21.70;14.48;;;;;;;8.32;59.70;101766.44;5040633;28;20453;-59
2021/10/01 05:49:49;;;;;;;27.08;14.05;;;;;;;8.33;59.53;101764.63;5036747;28;20031;-57
2021/10/01 05:54:43;;;;;;;22.90;14.65;;;;;;;8.34;59.30;101763.69;5031852;28;20407;-58
2021/10/01 05:57:10;;;;;;;22.15;14.68;;;;;;;8.40;59.50;101763.44;5031922;28;20097;-60
2021/10/01 05:59:41;;;;;;;21.48;14.63;;;;;;;8.42;59.14;101766.91;5035792;28;20076;-55
2021/10/01 06:02:17;;;;;;;24.08;14.30;;;;;;;8.43;59.35;101760.63;5039354;28;20053;-55
2021/10/01 06:04:44;;;;;;;20.95;14.25;;;;;;;8.39;59.39;101769.69;5031805;28;20049;-57
2021/10/01 06:07:11;;;;;;;22.92;14.93;;;;;;;8.42;59.32;101764.22;5035187;28;20358;-55
2021/10/01 06:09:38;;;;;;;23.50;14.98;;;;;;;8.45;59.61;101766.81;5020919;28;20098;-57
2021/10/01 06:12:04;;;;;;;21.05;14.40;;;;;;;8.47;59.35;101766.72;5040079;28;20116;-58
2021/10/01 06:14:29;;;;;;;23.08;14.57;;;;;;;8.49;59.03;101764.84;5040209;28;20032;-55
2021/10/01 06:16:55;;;;;;;23.17;14.82;;;;;;;8.55;58.60;101782.47;5040608;28;20191;-55
2021/10/01 06:19:22;;;;;;;21.27;14.48;;;;;;;8.57;58.38;101768.13;5039599;28;20033;-59
2021/10/01 06:21:48;;;;;;;20.30;14.27;;;;;;;8.63;58.41;101782.16;5039456;28;20062;-58
2021/10/01 06:24:14;;;;;;;25.15;14.65;;;;;;;8.67;58.49;101771.28;5041386;28;20056;-58
2021/10/01 06:26:40;;;;;;;25.02;14.68;;;;;;;8.72;58.11;101771.97;5040793;28;20052;-59
2021/10/01 06:29:06;;;;;;;24.38;15.57;;;;;;;8.76;58.01;101768.25;5034121;28;20033;-63
2021/10/01 06:31:31;;;;;;;24.92;15.48;;;;;;;8.80;57.38;101774.31;5040351;28;20059;-57
2021/10/01 06:33:57;;;;;;;27.10;14.93;;;;;;;8.84;57.06;101777.72;5051213;28;20079;-59
2021/10/01 06:36:23;;;;;;;21.50;13.57;;;;;;;8.91;61.00;101776.53;5051317;28;20519;-60
2021/10/01 06:38:52;;;;;;;22.73;14.13;;;;;;;9.09;58.56;101779.34;5038020;28;20278;-62
2021/10/01 06:41:19;;;;;;;21.90;14.52;;;;;;;9.13;58.05;101775.59;5038522;28;20129;-62
2021/10/01 06:43:45;;;;;;;21.55;15.48;;;;;;;9.30;57.26;101777.56;5051425;28;20044;-60
2021/10/01 06:46:29;;;;;;;22.90;15.00;;;;;;;9.45;56.61;101781.34;5050144;28;20417;-61
2021/10/01 08:20:48;;;;;;;22.95;13.02;;;;;;;10.41;49.91;101782.31;5050457;28;20040;-56
2021/10/01 08:23:14;;;;;;;20.73;12.93;;;;;;;10.32;50.10;101774.69;5037034;28;20025;-58
2021/10/01 08:25:40;;;;;;;18.85;12.93;;;;;;;10.35;49.92;101790.59;5029019;28;20100;-70
2021/10/01 08:28:06;;;;;;;19.80;12.63;;;;;;;10.46;49.55;101785.63;5040003;28;20133;-60
2021/10/01 08:30:32;;;;;;;19.98;13.43;;;;;;;10.44;49.64;101792.00;5052651;28;20049;-58
2021/10/01 08:32:58;;;;;;;20.73;13.55;;;;;;;10.30;49.57;101779.25;5053740;28;20494;-57
2021/10/01 08:35:24;;;;;;;19.30;13.80;;;;;;;10.18;49.85;101786.94;5052789;28;20082;-59
2021/10/01 08:37:55;;;;;;;23.08;13.55;;;;;;;10.12;50.18;101786.34;5049952;28;20044;-57
2021/10/01 08:40:22;;;;;;;20.90;13.63;;;;;;;9.94;50.26;101788.09;5041496;28;20056;-59
2021/10/01 08:42:52;;;;;;;21.30;15.18;;;;;;;9.92;50.55;101788.16;5042108;28;20445;-59
2021/10/01 08:45:20;;;;;;;19.60;13.45;;;;;;;9.98;50.46;101790.53;5040599;28;20081;-58
2021/10/01 08:47:46;;;;;;;19.98;13.52;;;;;;;10.13;50.13;101785.41;5037269;28;20033;-59
2021/10/01 08:50:16;;;;;;;21.25;13.30;;;;;;;10.25;49.50;101792.00;5041009;28;20040;-58
2021/10/01 08:52:42;;;;;;;18.80;12.75;;;;;;;10.28;49.07;101770.41;5037415;28;20052;-58
2021/10/01 08:55:08;;;;;;;20.95;13.80;;;;;;;10.48;48.63;101793.56;5037491;28;20468;-56
2021/10/01 08:57:34;;;;;;;20.63;13.70;;;;;;;10.54;48.14;101779.03;5043118;28;20042;-61
2021/10/01 09:00:05;;;;;;;17.45;12.50;;;;;;;10.38;47.96;101746.75;5042869;28;20036;-57
2021/10/01 09:02:31;;;;;;;17.90;13.82;;;;;;;10.73;47.38;101790.56;5044409;28;20144;-59
2021/10/01 09:04:57;;;;;;;20.50;12.55;;;;;;;10.82;47.99;101785.69;5041831;28;20065;-58
2021/10/01 09:07:23;;;;;;;23.38;12.77;;;;;;;10.89;47.40;101792.50;5041410;28;20072;-57
2021/10/01 09:09:52;;;;;;;21.02;13.50;;;;;;;10.94;47.71;101779.72;5041782;28;20037;-61
2021/10/01 09:12:19;;;;;;;21.77;13.60;;;;;;;10.93;47.50;101785.13;5060269;28;20045;-60
2021/10/01 09:14:52;;;;;;;21.77;14.10;;;;;;;10.96;48.06;101783.19;5060566;28;20036;-64
2021/10/01 09:17:23;;;;;;;23.30;14.23;;;;;;;10.90;47.90;101784.34;5062905;28;20033;-58
2021/10/01 09:19:49;;;;;;;22.85;14.80;;;;;;;10.63;47.99;101749.97;5052220;28;20029;-57
2021/10/01 09:22:33;;;;;;;22.13;14.25;;;;;;;11.04;48.25;101788.16;5065400;28;20593;-61
2021/10/01 09:25:24;;;;;;;22.05;13.30;;;;;;;11.11;47.85;101791.41;5059148;28;20033;-61
2021/10/01 09:27:59;;;;;;;21.40;14.25;;;;;;;11.01;47.81;101801.72;5068825;28;20025;-59
2021/10/01 09:30:24;;;;;;;19.35;13.48;;;;;;;10.96;48.21;101793.03;5048606;28;20043;-54
2021/10/01 09:33:06;;;;;;;20.70;13.65;;;;;;;11.08;47.96;101786.16;5062361;28;20036;-58
2021/10/01 09:35:32;;;;;;;19.70;13.85;;;;;;;10.77;48.00;101757.31;5067788;28;20037;-55
2021/10/01 09:38:09;;;;;;;21.30;14.05;;;;;;;11.09;48.12;101787.91;5056306;28;20020;-54
2021/10/01 09:40:35;;;;;;;18.23;12.95;;;;;;;11.11;47.69;101796.75;5058736;28;20502;-55
2021/10/01 09:43:00;;;;;;;23.10;13.95;;;;;;;11.09;47.25;101796.81;5057062;28;20028;-58
2021/10/01 09:45:26;;;;;;;19.27;14.00;;;;;;;10.99;47.92;101780.34;5054634;28;20055;-58
2021/10/01 09:47:52;;;;;;;20.80;13.90;;;;;;;11.06;47.70;101795.16;5067374;28;20037;-58
2021/10/01 09:50:32;;;;;;;20.08;14.05;;;;;;;11.17;47.83;101788.41;5058301;28;20028;-59
2021/10/01 09:53:03;;;;;;;22.85;14.70;;;;;;;11.22;48.06;101797.06;5063963;28;20039;-54
2021/10/01 09:55:32;;;;;;;26.50;15.95;;;;;;;11.10;48.11;101790.53;5058459;28;20068;-56
2021/10/01 09:58:00;;;;;;;22.33;14.55;;;;;;;11.01;47.96;101793.69;5063574;28;20032;-60
2021/10/01 10:00:53;;;;;;;22.65;14.48;;;;;;;11.11;48.25;101791.41;5052831;28;20041;-58
2021/10/01 10:03:22;;;;;;;18.85;13.07;;;;;;;10.98;48.05;101794.69;5066717;28;20119;-57
2021/10/01 10:06:06;;;;;;;20.27;14.48;;;;;;;11.03;48.10;101797.16;5057999;28;20052;-57
2021/10/01 10:08:40;;;;;;;21.60;13.93;;;;;;;11.03;47.67;101789.97;5055850;28;20078;-59
2021/10/01 10:11:12;;;;;;;20.40;14.13;;;;;;;10.99;47.56;101793.75;5058366;28;20313;-55
2021/10/01 10:13:52;;;;;;;19.67;14.55;;;;;;;11.04;47.70;101791.69;5051142;28;20037;-60
2021/10/01 10:16:18;;;;;;;19.23;14.02;;;;;;;10.92;47.40;101781.63;5052579;28;20036;-57
2021/10/01 10:18:45;;;;;;;21.83;14.57;;;;;;;10.89;47.59;101779.09;5065947;28;20036;-57
2021/10/01 10:21:11;;;;;;;20.95;14.73;;;;;;;10.94;47.52;101794.91;5043344;28;20057;-53
2021/10/01 10:23:37;;;;;;;20.08;14.93;;;;;;;10.89;47.38;101787.13;5046381;28;20170;-58
2021/10/01 10:26:03;;;;;;;19.52;14.52;;;;;;;10.93;47.08;101783.34;5060181;28;20101;-59
2021/10/01 10:28:33;;;;;;;20.75;14.85;;;;;;;11.06;47.42;101792.47;5051609;28;20040;-55
2021/10/01 10:30:58;;;;;;;23.52;14.57;;;;;;;11.06;47.30;101794.31;5057556;28;20477;-55
2021/10/01 10:33:38;;;;;;;19.55;15.05;;;;;;;11.14;47.48;101796.59;5049535;28;20115;-59
2021/10/01 10:36:27;;;;;;;17.73;14.45;;;;;;;11.18;47.54;101793.66;5061338;28;20051;-61
2021/10/01 10:39:17;;;;;;;19.90;14.07;;;;;;;11.07;47.10;101793.34;5065412;28;20044;-56
2021/10/01 10:42:13;;;;;;;22.15;14.90;;;;;;;11.05;47.99;101795.25;5048960;28;20633;-61
2021/10/01 10:44:53;;;;;;;23.10;14.48;;;;;;;10.89;47.37;101781.78;5064762;28;20119;-58
2021/10/01 10:47:42;;;;;;;21.50;15.20;;;;;;;10.99;47.79;101791.06;5053750;28;20108;-58
2021/10/01 10:50:25;;;;;;;20.50;14.25;;;;;;;10.98;47.86;101789.34;5045069;28;20082;-61
2021/10/01 10:55:42;;;;;;;19.75;14.13;;;;;;;10.89;47.75;101796.03;5040934;28;20082;-58
2021/10/01 10:58:23;;;;;;;20.30;14.60;;;;;;;10.96;47.76;101793.03;5059675;28;20029;-60
2021/10/01 11:01:14;;;;;;;22.80;15.15;;;;;;;10.93;47.99;101791.38;5045041;28;20040;-59
2021/10/01 11:03:40;;;;;;;24.35;14.40;;;;;;;10.85;48.31;101782.84;5041763;28;20477;-62
2021/10/01 11:06:15;;;;;;;25.40;14.32;;;;;;;10.88;47.68;101790.75;5059246;28;20044;-59
2021/10/01 11:08:45;;;;;;;22.20;15.00;;;;;;;10.91;47.98;101787.91;5061529;28;20044;-63
2021/10/01 11:11:29;;;;;;;22.27;14.02;;;;;;;10.95;47.98;101786.81;5056065;28;20132;-60
2021/10/01 11:14:13;;;;;;;20.88;15.23;;;;;;;10.91;48.00;101786.09;5060256;28;20035;-62
2021/10/01 11:16:39;;;;;;;22.13;13.88;;;;;;;10.81;48.03;101786.63;5058555;28;20051;-57
2021/10/01 11:19:05;;;;;;;23.70;15.40;;;;;;;10.77;47.58;101785.94;5050829;28;20028;-58
2021/10/01 11:21:43;;;;;;;21.80;15.57;;;;;;;10.72;47.75;101782.59;5065367;28;20036;-56
2021/10/01 11:24:13;;;;;;;22.88;15.18;;;;;;;10.76;47.85;101786.88;5059691;28;20504;-61
2021/10/01 11:26:43;;;;;;;18.92;14.90;;;;;;;10.49;47.96;101757.84;5055653;28;20036;-61
2021/10/01 11:29:28;;;;;;;23.45;16.08;;;;;;;10.67;48.54;101788.19;5044157;28;20026;-57
2021/10/01 11:32:04;;;;;;;25.55;16.15;;;;;;;10.58;48.94;101794.00;5042883;28;20044;-58
2021/10/01 11:34:42;;;;;;;20.10;14.88;;;;;;;10.54;48.94;101787.06;5046202;28;20033;-62
2021/10/01 11:37:25;;;;;;;22.98;14.85;;;;;;;10.48;49.11;101778.38;5066045;28;20054;-59
2021/10/01 11:39:52;;;;;;;19.67;14.40;;;;;;;10.32;48.83;101777.34;5048749;28;20368;-56
2021/10/01 11:42:29;;;;;;;21.25;14.77;;;;;;;10.11;49.82;101736.44;5055302;28;20040;-58
2021/10/01 11:44:58;;;;;;;26.13;15.38;;;;;;;10.32;49.65;101772.88;5051416;28;20060;-54
2021/10/01 11:47:24;;;;;;;21.08;15.23;;;;;;;10.37;49.45;101764.63;5036272;28;20590;-62
2021/10/01 11:49:58;;;;;;;25.73;15.93;;;;;;;10.46;49.39;101764.22;5057245;28;20438;-59
2021/10/01 11:52:26;;;;;;;23.30;15.55;;;;;;;10.39;50.15;101767.22;5060595;28;20261;-61
2021/10/01 11:54:58;;;;;;;23.13;15.52;;;;;;;10.51;50.44;101766.66;5053443;28;20024;-59
2021/10/01 11:57:32;;;;;;;21.23;15.48;;;;;;;10.49;49.83;101768.56;5037315;28;20029;-62
2021/10/01 12:00:03;;;;;;;22.17;15.05;;;;;;;10.50;50.12;101772.97;5064557;28;20036;-57
2021/10/01 12:02:36;;;;;;;25.55;15.05;;;;;;;10.54;50.25;101766.50;5056867;28;20041;-60
2021/10/01 12:05:23;;;;;;;21.05;14.60;;;;;;;10.71;49.73;101770.16;5066374;28;20384;-61
2021/10/01 12:07:51;;;;;;;20.10;14.00;;;;;;;10.68;49.12;101768.50;5059036;28;20181;-59
2021/10/01 12:10:18;;;;;;;21.15;14.52;;;;;;;10.68;48.47;101763.16;5070374;28;20040;-59
2021/10/01 12:13:05;;;;;;;19.75;14.57;;;;;;;10.81;48.76;101762.50;5058871;28;20398;-58
2021/10/01 12:16:00;;;;;;;23.42;15.32;;;;;;;10.77;49.04;101754.63;5042880;28;20067;-61
2021/10/01 12:18:45;;;;;;;21.25;14.75;;;;;;;10.76;48.68;101755.59;5058638;28;20040;-59
2021/10/01 12:21:19;;;;;;;20.15;14.20;;;;;;;10.63;48.35;101755.34;5067048;28;20098;-60
2021/10/01 12:23:50;;;;;;;22.80;15.23;;;;;;;10.58;48.83;101754.69;5060342;28;20035;-61
2021/10/01 12:26:31;;;;;;;21.48;15.02;;;;;;;10.61;49.00;101751.00;5062265;28;20029;-59
2021/10/01 12:29:15;;;;;;;21.50;14.57;;;;;;;10.56;48.93;101751.22;5063105;28;20028;-56
2021/10/01 12:31:47;;;;;;;21.13;14.48;;;;;;;10.47;48.58;101757.03;5067351;28;20044;-60
2021/10/01 12:34:15;;;;;;;22.30;14.93;;;;;;;10.37;48.63;101742.34;5063206;28;20384;-59
2021/10/01 12:36:44;;;;;;;22.48;14.75;;;;;;;10.22;48.70;101749.31;5058492;28;20075;-60
2021/10/01 12:39:10;;;;;;;19.85;14.52;;;;;;;10.12;49.58;101746.19;5069155;28;20024;-61
2021/10/01 12:41:35;;;;;;;25.50;14.73;;;;;;;10.05;49.20;101742.94;5057125;28;20032;-60
2021/10/01 12:44:03;;;;;;;22.75;14.35;;;;;;;10.08;49.30;101737.44;5063428;28;20055;-59
2021/10/01 12:46:32;;;;;;;18.65;14.07;;;;;;;10.11;49.46;101748.00;5065859;28;20069;-60
2021/10/01 12:49:17;;;;;;;22.55;13.90;;;;;;;10.18;49.69;101732.50;5055158;28;20035;-59
2021/10/01 12:51:44;;;;;;;20.90;13.23;;;;;;;10.07;49.72;101729.50;5051599;28;20499;-57
2021/10/01 12:54:29;;;;;;;19.08;13.80;;;;;;;10.17;49.86;101737.03;5061969;28;20208;-58
2021/10/01 12:57:19;;;;;;;20.90;13.48;;;;;;;10.22;49.69;101733.25;5067780;28;20029;-58
2021/10/01 12:59:51;;;;;;;23.02;13.82;;;;;;;10.10;49.13;101729.34;5046445;28;20138;-56
2021/10/01 13:02:20;;;;;;;18.58;12.52;;;;;;;10.01;49.86;101722.63;5061956;28;20051;-57
2021/10/01 13:04:54;;;;;;;18.50;13.23;;;;;;;9.91;49.65;101731.09;5057514;28;20048;-60
2021/10/01 13:07:35;;;;;;;17.10;13.07;;;;;;;9.96;50.05;101730.00;5069370;28;20028;-58